Time;durP1;ratioP1;P1;durP2;ratioP2;P2;SDS_P1;SDS_P2;PMS_P1;PMS_P2;Temp;Humidity;BMP_temperature;BMP_pressure;BME280_temperature;BME280_humidity;BME280_pressure;Samples;Min_cycle;Max_cycle;Signal;HPM_P1;HPM_P2
2023/03/01 00:01:58;;;;;;;20.75;12.15;;;1.50;93.20;;;;;;5034277;28;20151;-74
2023/03/01 00:04:24;;;;;;;24.27;13.18;;;1.50;93.20;;;;;;5034907;28;20104;-74
2023/03/01 00:06:50;;;;;;;15.18;9.18;;;1.50;93.00;;;;;;5032787;28;20040;-75
2023/03/01 00:09:17;;;;;;;22.10;11.95;;;1.50;93.20;;;;;;5032883;28;20087;-73
2023/03/01 00:11:43;;;;;;;19.00;11.07;;;1.50;93.20;;;;;;5035556;28;20056;-73
2023/03/01 00:14:09;;;;;;;23.85;13.30;;;1.50;93.20;;;;;;5033209;28;20049;-73
2023/03/01 00:16:40;;;;;;;21.63;12.07;;;1.50;93.30;;;;;;5032954;28;20028;-73
2023/03/01 00:19:09;;;;;;;17.08;10.88;;;1.50;93.30;;;;;;5041905;28;20038;-73
2023/03/01 00:21:35;;;;;;;14.23;9.10;;;1.40;93.40;;;;;;5049410;28;20035;-72
2023/03/01 00:24:01;;;;;;;17.52;9.88;;;1.40;93.50;;;;;;5053066;28;20111;-74
2023/03/01 00:26:27;;;;;;;19.08;11.15;;;1.50;93.60;;;;;;5054387;28;20027;-73
2023/03/01 00:28:55;;;;;;;21.23;11.35;;;1.50;93.50;;;;;;5055101;28;20021;-73
2023/03/01 00:31:25;;;;;;;17.02;9.32;;;1.50;93.50;;;;;;5034546;28;20049;-72
2023/03/01 00:33:57;;;;;;;14.98;9.15;;;1.50;93.60;;;;;;5038552;28;20537;-72
2023/03/01 00:36:24;;;;;;;15.30;9.35;;;1.50;93.70;;;;;;5040230;28;20045;-73
2023/03/01 00:38:50;;;;;;;16.80;9.10;;;1.50;93.70;;;;;;5040271;28;20097;-73
2023/03/01 00:41:18;;;;;;;19.38;11.73;;;1.50;93.70;;;;;;5041987;28;20045;-73
2023/03/01 00:43:44;;;;;;;17.35;10.52;;;1.50;93.60;;;;;;5049505;28;20033;-73
2023/03/01 00:46:13;;;;;;;17.90;10.85;;;1.50;93.60;;;;;;5059045;28;20037;-74
2023/03/01 00:48:39;;;;;;;17.73;11.48;;;1.40;93.60;;;;;;5043632;28;20513;-73
2023/03/01 00:51:07;;;;;;;17.35;10.38;;;1.40;93.70;;;;;;5034170;28;20441;-74
2023/03/01 00:53:33;;;;;;;18.27;10.63;;;1.40;93.80;;;;;;5036612;28;20410;-73
2023/03/01 00:55:59;;;;;;;16.70;10.25;;;1.40;93.80;;;;;;5033437;28;20040;-73
2023/03/01 00:58:26;;;;;;;23.48;12.18;;;1.40;93.70;;;;;;5034069;28;20026;-73
2023/03/01 01:00:54;;;;;;;19.63;11.63;;;1.40;93.70;;;;;;5034095;28;20040;-74
2023/03/01 01:03:21;;;;;;;22.45;12.73;;;1.40;93.60;;;;;;5034536;28;20375;-74
2023/03/01 01:05:47;;;;;;;15.93;10.48;;;1.40;93.50;;;;;;5033584;28;20017;-74
2023/03/01 01:08:13;;;;;;;16.70;10.07;;;1.30;93.60;;;;;;5034402;28;20044;-73
2023/03/01 01:10:38;;;;;;;19.52;12.07;;;1.30;93.70;;;;;;5034757;28;20041;-74
2023/03/01 01:13:04;;;;;;;21.00;11.27;;;1.30;93.70;;;;;;5032021;28;20321;-75
2023/03/01 01:15:34;;;;;;;18.35;10.68;;;1.40;93.80;;;;;;5017617;28;20498;-74
2023/03/01 01:18:00;;;;;;;18.90;11.02;;;1.40;93.80;;;;;;5029754;28;20025;-73
2023/03/01 01:20:26;;;;;;;18.73;11.70;;;1.40;93.80;;;;;;5049042;28;20013;-73
2023/03/01 01:22:52;;;;;;;21.10;11.35;;;1.40;93.80;;;;;;5040040;28;20025;-74
2023/03/01 01:25:18;;;;;;;18.35;10.32;;;1.30;93.70;;;;;;5037247;28;20029;-74
2023/03/01 01:27:43;;;;;;;20.83;12.40;;;1.30;93.70;;;;;;5037189;28;20096;-74
2023/03/01 01:30:10;;;;;;;20.27;10.25;;;1.30;93.60;;;;;;5037343;28;20045;-73
2023/03/01 01:32:35;;;;;;;20.00;10.60;;;1.30;93.70;;;;;;5028253;28;20033;-74
2023/03/01 01:35:01;;;;;;;16.40;8.95;;;1.30;93.70;;;;;;5035809;28;20475;-74
2023/03/01 01:37:31;;;;;;;15.75;8.27;;;1.30;93.70;;;;;;5038082;28;20029;-74
2023/03/01 01:40:03;;;;;;;14.60;9.05;;;1.40;93.90;;;;;;5036111;28;20031;-74
2023/03/01 01:42:28;;;;;;;;;;;1.40;93.80;;;;;;5036816;28;20437;-73
2023/03/01 01:45:23;;;;;;;23.02;12.23;;;1.30;93.50;;;;;;5035969;28;19905;-74
2023/03/01 01:47:50;;;;;;;19.85;9.98;;;1.30;93.50;;;;;;5029152;28;20037;-74
2023/03/01 01:50:19;;;;;;;20.75;10.50;;;1.30;93.70;;;;;;5047411;28;20093;-73
2023/03/01 01:52:46;;;;;;;19.05;12.07;;;1.30;93.70;;;;;;5047304;28;20068;-74
2023/03/01 01:55:16;;;;;;;16.85;11.07;;;1.30;93.70;;;;;;5035516;28;20152;-73
2023/03/01 01:57:47;;;;;;;14.23;9.38;;;1.30;93.70;;;;;;5036019;28;20026;-74
2023/03/01 02:00:19;;;;;;;14.52;9.18;;;1.30;93.80;;;;;;5037045;28;20049;-74
2023/03/01 02:02:47;;;;;;;21.85;11.88;;;1.30;93.90;;;;;;5030335;28;20034;-73
2023/03/01 02:05:40;;;;;;;18.92;11.13;;;1.40;93.80;;;;;;5016211;28;20037;-73
2023/03/01 02:08:08;;;;;;;18.33;10.38;;;1.30;93.70;;;;;;4996271;28;20130;-74
2023/03/01 02:10:35;;;;;;;19.05;9.77;;;1.30;93.70;;;;;;5016329;28;20042;-73
2023/03/01 02:13:02;;;;;;;17.88;10.70;;;1.30;93.70;;;;;;5020239;28;20028;-74
2023/03/01 02:15:33;;;;;;;20.25;11.00;;;1.30;93.80;;;;;;5035623;28;20036;-74
2023/03/01 02:17:59;;;;;;;19.73;11.65;;;1.30;93.70;;;;;;5037766;28;20016;-74
2023/03/01 02:20:40;;;;;;;16.88;9.80;;;1.20;93.70;;;;;;5046482;28;20017;-73
2023/03/01 02:23:08;;;;;;;18.70;11.90;;;1.30;93.90;;;;;;5050750;28;20017;-73
2023/03/01 02:26:00;;;;;;;21.13;12.10;;;1.30;93.70;;;;;;5015611;28;20018;-74
2023/03/01 02:28:30;;;;;;;15.27;9.80;;;1.20;93.70;;;;;;5031179;28;20128;-74
2023/03/01 02:33:42;;;;;;;23.55;13.90;;;1.20;93.90;;;;;;5019450;28;20033;-73
2023/03/01 02:36:15;;;;;;;21.35;12.13;;;1.20;93.70;;;;;;5035257;28;20056;-74
2023/03/01 02:38:42;;;;;;;17.52;11.57;;;1.20;93.70;;;;;;5034887;28;20030;-74
2023/03/01 02:41:11;;;;;;;19.23;11.48;;;1.20;93.90;;;;;;5034939;28;20104;-73
2023/03/01 02:43:37;;;;;;;21.40;12.02;;;1.20;93.90;;;;;;5033870;28;20026;-73
2023/03/01 02:46:13;;;;;;;24.13;14.05;;;1.10;94.00;;;;;;5014098;28;20032;-73
2023/03/01 02:48:45;;;;;;;19.88;13.30;;;1.10;93.90;;;;;;5038795;28;20330;-74
2023/03/01 02:51:27;;;;;;;20.15;10.70;;;1.10;93.70;;;;;;5046656;28;20358;-74
2023/03/01 02:54:25;;;;;;;17.73;10.77;;;1.10;93.80;;;;;;5068598;28;20048;-74
2023/03/01 02:56:51;;;;;;;18.23;11.27;;;1.10;94.10;;;;;;5025237;28;20038;-73
2023/03/01 02:59:20;;;;;;;21.10;12.35;;;1.10;94.20;;;;;;5015001;28;20234;-73
2023/03/01 03:01:46;;;;;;;20.88;12.60;;;1.00;94.20;;;;;;5015106;28;20113;-73
2023/03/01 03:04:16;;;;;;;21.45;12.25;;;1.00;94.10;;;;;;5015060;28;20101;-74
2023/03/01 03:06:47;;;;;;;20.58;11.40;;;1.00;94.10;;;;;;5035066;28;20104;-73
2023/03/01 03:09:13;;;;;;;20.38;12.73;;;1.00;94.10;;;;;;5033388;28;20024;-73
2023/03/01 03:11:40;;;;;;;15.95;9.43;;;1.00;94.00;;;;;;5034465;28;20025;-74
2023/03/01 03:14:12;;;;;;;21.80;13.10;;;1.00;94.10;;;;;;5050156;28;20107;-74
2023/03/01 03:16:41;;;;;;;21.73;13.93;;;1.00;94.10;;;;;;5016823;28;20053;-74
2023/03/01 03:19:07;;;;;;;18.63;11.75;;;1.00;93.70;;;;;;5040135;28;20029;-73
2023/03/01 03:21:32;;;;;;;24.58;15.05;;;1.00;93.80;;;;;;5052604;28;20036;-73
2023/03/01 03:23:58;;;;;;;19.90;11.52;;;1.00;93.60;;;;;;5053744;28;20037;-74
2023/03/01 03:26:24;;;;;;;17.17;10.68;;;0.90;93.60;;;;;;5040332;28;20029;-73
2023/03/01 03:28:50;;;;;;;15.93;9.23;;;0.90;93.90;;;;;;5035782;28;20032;-74
2023/03/01 03:31:16;;;;;;;22.67;14.50;;;1.00;94.00;;;;;;5033569;28;20041;-73
2023/03/01 03:33:41;;;;;;;20.00;12.40;;;1.00;93.60;;;;;;5034053;28;20095;-74
2023/03/01 03:36:12;;;;;;;18.38;11.50;;;1.00;93.30;;;;;;5033546;28;20045;-74
2023/03/01 03:38:39;;;;;;;17.20;10.55;;;0.90;93.50;;;;;;5033979;28;20039;-73
2023/03/01 03:41:07;;;;;;;17.05;10.90;;;0.90;93.70;;;;;;5032122;28;20038;-74
2023/03/01 03:43:35;;;;;;;18.63;10.98;;;0.90;93.80;;;;;;5051213;28;20483;-75
2023/03/01 03:46:05;;;;;;;22.85;12.00;;;0.90;93.80;;;;;;5034152;28;20013;-74
2023/03/01 03:48:33;;;;;;;17.70;11.18;;;0.90;93.60;;;;;;5056411;28;20370;-74
2023/03/01 03:50:59;;;;;;;16.33;10.10;;;0.90;93.70;;;;;;5060591;28;20432;-73
2023/03/01 03:53:26;;;;;;;17.25;9.65;;;0.80;93.70;;;;;;5069425;28;20009;-74
2023/03/01 03:55:53;;;;;;;14.20;9.60;;;0.80;93.80;;;;;;5053494;28;20116;-74
2023/03/01 03:58:21;;;;;;;27.08;14.75;;;0.90;93.90;;;;;;5047529;28;20034;-74
2023/03/01 04:00:50;;;;;;;19.00;12.73;;;0.90;93.30;;;;;;5032621;28;20055;-73
2023/03/01 04:03:18;;;;;;;22.13;12.82;;;0.90;93.20;;;;;;5033657;28;20065;-73
2023/03/01 04:05:44;;;;;;;18.42;11.45;;;0.80;93.30;;;;;;5038293;28;20117;-73
2023/03/01 04:08:11;;;;;;;22.80;13.48;;;0.80;93.50;;;;;;5039448;28;20039;-72
2023/03/01 04:10:45;;;;;;;18.85;10.10;;;0.80;93.30;;;;;;5042166;28;20045;-73
2023/03/01 04:13:13;;;;;;;19.27;12.15;;;0.70;93.40;;;;;;5043678;28;20032;-74
2023/03/01 04:15:40;;;;;;;20.92;12.27;;;0.70;93.50;;;;;;5040898;28;20036;-73
2023/03/01 04:18:06;;;;;;;19.13;10.95;;;0.70;93.50;;;;;;5037927;28;20022;-73
2023/03/01 04:20:34;;;;;;;17.55;9.95;;;0.70;93.60;;;;;;5050362;28;20094;-73
2023/03/01 04:23:20;;;;;;;24.20;12.95;;;0.70;93.60;;;;;;5042551;28;20029;-73
2023/03/01 04:25:55;;;;;;;21.42;12.10;;;0.70;93.40;;;;;;5034798;28;20078;-73
2023/03/01 04:28:34;;;;;;;24.35;13.77;;;0.70;93.20;;;;;;5049648;28;20099;-73
2023/03/01 04:31:12;;;;;;;24.17;13.35;;;0.60;93.40;;;;;;5032421;28;20120;-74
2023/03/01 04:33:51;;;;;;;20.67;12.65;;;0.60;93.20;;;;;;5027772;28;20032;-73
2023/03/01 04:36:19;;;;;;;17.95;11.98;;;0.60;93.30;;;;;;5028884;28;20034;-74
2023/03/01 04:38:48;;;;;;;20.73;12.05;;;0.50;93.30;;;;;;5014223;28;20022;-72
2023/03/01 04:41:15;;;;;;;17.15;10.07;;;0.50;93.40;;;;;;5016343;28;20036;-73
2023/03/01 04:43:41;;;;;;;16.70;9.60;;;0.50;93.50;;;;;;5016094;28;20022;-74
2023/03/01 04:46:11;;;;;;;19.05;10.85;;;0.60;93.60;;;;;;5017795;28;20030;-73
2023/03/01 04:48:39;;;;;;;19.98;11.38;;;0.60;93.60;;;;;;5040989;28;20028;-74
2023/03/01 04:51:06;;;;;;;18.33;11.40;;;0.50;93.60;;;;;;5037367;28;20095;-73
2023/03/01 04:53:32;;;;;;;18.05;10.98;;;0.50;93.50;;;;;;5035355;28;20079;-73
2023/03/01 04:55:58;;;;;;;21.35;10.45;;;0.50;93.70;;;;;;5037290;28;20174;-73
2023/03/01 04:58:26;;;;;;;14.93;9.25;;;0.50;93.90;;;;;;5038640;28;20087;-73
2023/03/01 05:00:53;;;;;;;20.75;12.23;;;0.50;94.10;;;;;;5037227;28;20471;-73
2023/03/01 05:03:19;;;;;;;23.27;13.57;;;0.50;94.00;;;;;;5037480;28;20045;-73
2023/03/01 05:05:47;;;;;;;18.70;12.27;;;0.40;94.00;;;;;;5038757;28;20052;-73
2023/03/01 05:08:17;;;;;;;22.65;11.90;;;0.40;94.00;;;;;;5033787;28;20021;-73
2023/03/01 05:10:46;;;;;;;20.42;12.32;;;0.30;94.10;;;;;;5017350;28;20096;-73
2023/03/01 05:13:20;;;;;;;21.85;13.80;;;0.20;94.10;;;;;;5017120;28;20040;-72
2023/03/01 05:15:57;;;;;;;20.77;12.20;;;0.20;94.20;;;;;;5016515;28;20092;-73
2023/03/01 05:18:27;;;;;;;18.40;10.75;;;0.20;94.30;;;;;;5034806;28;20022;-74
2023/03/01 05:21:03;;;;;;;17.73;11.80;;;0.10;94.40;;;;;;5048721;28;20029;-74
2023/03/01 05:23:30;;;;;;;19.52;12.13;;;0.10;94.40;;;;;;5055326;28;20112;-73
2023/03/01 05:26:02;;;;;;;19.05;10.77;;;0.10;94.60;;;;;;5042474;28;20030;-73
2023/03/01 05:28:28;;;;;;;20.60;12.52;;;0.10;94.70;;;;;;5015393;28;20014;-74
2023/03/01 05:30:54;;;;;;;26.23;13.82;;;0.10;94.40;;;;;;5015977;28;20083;-73
2023/03/01 05:33:21;;;;;;;25.05;14.40;;;0.10;94.30;;;;;;5018811;28;20052;-75
2023/03/01 05:35:48;;;;;;;22.13;12.80;;;0.00;94.30;;;;;;5016426;28;20018;-73
2023/03/01 05:38:15;;;;;;;23.83;13.60;;;0.00;94.40;;;;;;5016506;28;20029;-73
2023/03/01 05:40:43;;;;;;;24.35;12.80;;;0.00;94.40;;;;;;5016928;28;20022;-72
2023/03/01 05:43:09;;;;;;;18.95;11.90;;;0.00;94.50;;;;;;5017493;28;20076;-73
2023/03/01 05:45:37;;;;;;;21.08;11.02;;;-0.10;94.60;;;;;;5016593;28;20095;-73
2023/03/01 05:48:04;;;;;;;17.60;10.00;;;0.00;94.70;;;;;;5029203;28;20545;-73
2023/03/01 05:50:36;;;;;;;22.30;13.80;;;-0.10;94.70;;;;;;5047747;28;20087;-72
2023/03/01 05:53:07;;;;;;;21.40;12.90;;;-0.10;94.90;;;;;;5035453;28;20056;-73
2023/03/01 05:55:35;;;;;;;23.92;12.60;;;-0.10;94.50;;;;;;5024033;28;20022;-74
2023/03/01 05:58:06;;;;;;;19.80;12.07;;;-0.10;94.60;;;;;;5018233;28;20101;-73
2023/03/01 06:00:32;;;;;;;24.42;12.82;;;-0.10;94.60;;;;;;5036522;28;20056;-74
2023/03/01 06:03:00;;;;;;;26.48;12.95;;;-0.10;94.60;;;;;;5034666;28;20033;-73
2023/03/01 06:05:26;;;;;;;20.85;13.50;;;-0.10;94.60;;;;;;5026554;28;20082;-73
2023/03/01 06:07:52;;;;;;;23.83;13.48;;;-0.10;94.60;;;;;;5016218;28;20053;-73
2023/03/01 06:10:20;;;;;;;27.55;14.63;;;-0.10;94.60;;;;;;5022100;28;20131;-74
2023/03/01 06:12:47;;;;;;;22.27;13.43;;;-0.10;94.50;;;;;;5032147;28;20033;-73
2023/03/01 06:15:15;;;;;;;19.67;11.30;;;-0.10;94.40;;;;;;5035695;28;20022;-74
2023/03/01 06:17:43;;;;;;;23.98;12.25;;;-0.10;94.60;;;;;;5036057;28;20030;-75
2023/03/01 06:20:14;;;;;;;18.48;10.90;;;-0.10;94.70;;;;;;5047384;28;20488;-75
2023/03/01 06:22:43;;;;;;;22.65;11.40;;;0.00;95.00;;;;;;5040360;28;20033;-74
2023/03/01 06:25:09;;;;;;;16.73;10.43;;;0.00;94.70;;;;;;5033049;28;20494;-74
2023/03/01 06:27:35;;;;;;;20.50;11.48;;;0.10;94.80;;;;;;5036596;28;20103;-74
2023/03/01 06:30:01;;;;;;;19.90;11.60;;;0.10;94.50;;;;;;5018403;28;20025;-74
2023/03/01 06:32:27;;;;;;;18.00;10.60;;;0.10;94.40;;;;;;5025726;28;20613;-75
2023/03/01 06:34:53;;;;;;;19.08;11.43;;;0.20;94.60;;;;;;5038505;28;20029;-73
2023/03/01 06:37:18;;;;;;;21.48;11.68;;;0.20;94.40;;;;;;5019448;28;20033;-72
2023/03/01 06:39:44;;;;;;;23.15;13.68;;;0.20;94.20;;;;;;5031679;28;20364;-73
2023/03/01 06:42:10;;;;;;;24.15;13.20;;;0.20;94.00;;;;;;5045259;28;20029;-73
2023/03/01 06:44:36;;;;;;;24.60;13.30;;;0.10;93.90;;;;;;5040533;28;20067;-74
2023/03/01 06:47:03;;;;;;;23.73;12.23;;;0.10;93.80;;;;;;5036994;28;20037;-75
2023/03/01 06:49:28;;;;;;;25.63;14.30;;;0.10;94.00;;;;;;5034234;28;20025;-73
2023/03/01 06:51:54;;;;;;;20.08;11.88;;;0.10;94.10;;;;;;5039500;28;20574;-75
2023/03/01 06:54:22;;;;;;;22.55;12.27;;;0.10;94.20;;;;;;5046950;28;20025;-74
2023/03/01 06:56:48;;;;;;;22.23;11.80;;;0.20;94.30;;;;;;5035633;28;20032;-73
2023/03/01 06:59:15;;;;;;;28.25;15.95;;;0.20;94.20;;;;;;5018390;28;20076;-74
2023/03/01 07:01:40;;;;;;;22.25;12.95;;;0.20;94.00;;;;;;5015644;28;20033;-72
2023/03/01 07:04:06;;;;;;;27.70;14.23;;;0.20;94.00;;;;;;5015674;28;20394;-73
2023/03/01 07:06:32;;;;;;;26.83;14.30;;;0.30;93.80;;;;;;5016331;28;20018;-72
2023/03/01 07:08:58;;;;;;;21.38;12.93;;;0.30;93.70;;;;;;5026371;28;20465;-75
2023/03/01 07:11:23;;;;;;;23.33;12.23;;;0.30;93.80;;;;;;5016217;28;20040;-74
2023/03/01 07:13:49;;;;;;;19.63;10.82;;;0.30;93.90;;;;;;5016188;28;20034;-74
2023/03/01 07:16:15;;;;;;;21.48;12.90;;;0.40;94.00;;;;;;5026011;28;20033;-74
2023/03/01 07:18:41;;;;;;;26.88;14.25;;;0.50;93.80;;;;;;5035580;28;20083;-75
2023/03/01 07:21:09;;;;;;;22.60;13.95;;;0.50;93.50;;;;;;5039393;28;20071;-75
2023/03/01 07:23:35;;;;;;;29.88;16.08;;;0.50;93.40;;;;;;5036892;28;20025;-74
2023/03/01 07:26:01;;;;;;;29.52;14.85;;;0.50;93.20;;;;;;5035088;28;20018;-74
2023/03/01 07:28:27;;;;;;;21.85;13.25;;;0.50;93.30;;;;;;5035328;28;20462;-73
2023/03/01 07:30:53;;;;;;;21.52;12.93;;;0.50;93.30;;;;;;5052408;28;20033;-73
2023/03/01 07:33:19;;;;;;;24.33;13.10;;;0.60;93.30;;;;;;5036390;28;20366;-73
2023/03/01 07:35:44;;;;;;;22.70;12.88;;;0.60;93.30;;;;;;5035127;28;20033;-73
2023/03/01 07:38:10;;;;;;;28.95;14.32;;;0.60;93.20;;;;;;5029039;23;20066;-74
2023/03/01 07:40:36;;;;;;;24.05;13.45;;;0.60;93.30;;;;;;5011977;28;20091;-77
2023/03/01 07:43:02;;;;;;;22.15;11.75;;;0.70;93.40;;;;;;5020708;28;20446;-77
2023/03/01 07:45:30;;;;;;;19.42;11.25;;;0.80;93.50;;;;;;5021756;28;20455;-76
2023/03/01 07:47:57;;;;;;;17.85;10.18;;;0.90;93.20;;;;;;5017610;28;20050;-75
2023/03/01 07:50:23;;;;;;;15.40;9.50;;;1.10;93.20;;;;;;5016571;28;20076;-75
2023/03/01 07:52:49;;;;;;;14.13;8.27;;;1.20;92.90;;;;;;5003546;28;20089;-74
2023/03/01 07:55:16;;;;;;;18.42;9.93;;;1.30;92.80;;;;;;5004626;28;20026;-75
2023/03/01 07:57:42;;;;;;;20.80;12.18;;;1.50;92.50;;;;;;5002914;28;20108;-76
2023/03/01 08:00:10;;;;;;;23.73;14.10;;;1.40;91.90;;;;;;5001464;28;20113;-75
2023/03/01 08:02:36;;;;;;;21.83;13.32;;;1.40;91.50;;;;;;5002923;28;20022;-75
2023/03/01 08:05:01;;;;;;;24.52;13.80;;;1.30;91.10;;;;;;5001070;28;20053;-75
2023/03/01 08:07:27;;;;;;;17.15;10.52;;;1.30;91.50;;;;;;4998903;28;20045;-75
2023/03/01 08:09:53;;;;;;;24.77;13.85;;;1.40;91.80;;;;;;5019964;28;20018;-73
2023/03/01 08:12:18;;;;;;;26.23;15.10;;;1.50;91.00;;;;;;5017883;28;20118;-74
2023/03/01 08:14:44;;;;;;;23.73;13.30;;;1.40;90.50;;;;;;5003208;28;20116;-75
2023/03/01 08:17:10;;;;;;;24.83;14.00;;;1.30;90.90;;;;;;5000304;28;20034;-76
2023/03/01 08:19:36;;;;;;;21.70;12.32;;;1.30;90.90;;;;;;5008455;28;20030;-76
2023/03/01 08:22:02;;;;;;;22.15;12.70;;;1.30;91.20;;;;;;5022530;28;20068;-76
2023/03/01 08:24:28;;;;;;;24.45;14.50;;;1.40;91.10;;;;;;5001505;28;20023;-76
2023/03/01 08:26:55;;;;;;;21.17;12.88;;;1.40;90.50;;;;;;5015647;28;20113;-74
2023/03/01 08:29:21;;;;;;;25.25;13.48;;;1.40;90.60;;;;;;5018843;28;20101;-75
2023/03/01 08:31:47;;;;;;;26.02;14.98;;;1.50;90.30;;;;;;5003009;28;20023;-75
2023/03/01 08:34:15;;;;;;;24.50;14.43;;;1.50;90.30;;;;;;5000805;28;20061;-75
2023/03/01 08:36:44;;;;;;;24.33;13.82;;;1.60;90.40;;;;;;5002773;28;20026;-75
2023/03/01 08:39:12;;;;;;;26.85;14.93;;;1.60;90.30;;;;;;5002647;28;20049;-75
2023/03/01 08:41:38;;;;;;;21.98;12.52;;;1.60;90.30;;;;;;5006997;28;20022;-76
2023/03/01 08:44:05;;;;;;;23.17;13.70;;;1.70;90.30;;;;;;5011327;28;20061;-74
2023/03/01 08:46:33;;;;;;;22.52;13.80;;;1.60;90.10;;;;;;4999076;28;20122;-74
2023/03/01 08:48:59;;;;;;;28.38;15.30;;;1.60;90.10;;;;;;5002750;28;20029;-76
2023/03/01 08:51:26;;;;;;;23.65;13.90;;;1.70;89.50;;;;;;5012152;28;20031;-75
2023/03/01 08:53:52;;;;;;;25.02;12.23;;;1.80;90.00;;;;;;5001658;28;20026;-75
2023/03/01 08:56:19;;;;;;;19.88;11.40;;;1.90;90.10;;;;;;5002289;28;20052;-74
2023/03/01 08:58:47;;;;;;;17.67;9.70;;;2.10;90.20;;;;;;5001184;28;20082;-75
2023/03/01 09:01:16;;;;;;;18.23;10.70;;;2.30;90.00;;;;;;5002448;28;20026;-75
2023/03/01 09:03:43;;;;;;;17.05;10.18;;;2.50;89.30;;;;;;5001857;28;20027;-75
2023/03/01 09:06:09;;;;;;;26.70;13.77;;;2.70;89.00;;;;;;5000750;28;20022;-75
2023/03/01 09:08:37;;;;;;;24.60;12.95;;;2.60;86.50;;;;;;5002500;28;20022;-75
2023/03/01 09:11:04;;;;;;;20.67;13.43;;;2.50;86.40;;;;;;5000312;28;20038;-75
2023/03/01 09:13:31;;;;;;;20.38;11.10;;;2.50;86.60;;;;;;5002264;28;20395;-75
2023/03/01 09:15:58;;;;;;;22.88;12.77;;;2.50;87.60;;;;;;5003277;28;20392;-75
2023/03/01 09:18:23;;;;;;;25.02;13.07;;;2.60;87.20;;;;;;5007984;28;20026;-75
2023/03/01 09:20:49;;;;;;;21.50;12.55;;;2.60;86.80;;;;;;5018532;28;20029;-73
2023/03/01 09:23:15;;;;;;;18.20;10.25;;;2.60;86.90;;;;;;5012162;28;20038;-75
2023/03/01 09:25:40;;;;;;;24.83;13.95;;;2.70;87.20;;;;;;4981275;28;20038;-74
2023/03/01 09:28:06;;;;;;;24.73;12.88;;;2.70;86.00;;;;;;4991980;28;20387;-76
2023/03/01 09:30:32;;;;;;;21.25;13.55;;;2.70;86.20;;;;;;5000003;28;20026;-75
2023/03/01 09:32:57;;;;;;;22.80;14.30;;;2.70;86.00;;;;;;5000339;28;20030;-76
2023/03/01 09:35:23;;;;;;;22.20;12.73;;;2.70;85.40;;;;;;4999892;28;20045;-75
2023/03/01 09:37:49;;;;;;;23.92;12.77;;;2.80;86.10;;;;;;5000741;28;20038;-75
2023/03/01 09:40:21;;;;;;;21.45;12.55;;;2.80;85.90;;;;;;5002901;28;20023;-74
2023/03/01 09:43:02;;;;;;;22.10;12.65;;;2.90;86.30;;;;;;4984261;28;20030;-75
2023/03/01 09:45:39;;;;;;;25.17;13.75;;;3.00;85.80;;;;;;4994805;28;20023;-75
2023/03/01 09:48:09;;;;;;;24.92;14.27;;;3.00;84.80;;;;;;5003165;28;20284;-76
2023/03/01 09:50:40;;;;;;;23.85;14.20;;;2.90;84.70;;;;;;5018545;28;20022;-74
2023/03/01 09:53:17;;;;;;;25.23;13.57;;;2.90;84.50;;;;;;5009923;28;20029;-75
2023/03/01 09:55:50;;;;;;;18.48;11.40;;;3.00;85.00;;;;;;4993919;28;20034;-77
2023/03/01 09:58:41;;;;;;;20.70;12.05;;;3.20;85.50;;;;;;4982380;28;20034;-76
2023/03/01 10:01:25;;;;;;;22.85;13.82;;;3.40;84.30;;;;;;4998045;28;20046;-75
2023/03/01 10:04:28;;;;;;;24.58;14.50;;;3.50;83.40;;;;;;4995817;28;20031;-76
2023/03/01 10:07:13;;;;;;;;;;;3.50;83.50;;;;;;4995183;28;20058;-75
2023/03/01 10:09:41;;;;;;;16.08;10.65;;;3.60;83.90;;;;;;4981978;28;19953;-74
2023/03/01 10:12:25;;;;;;;16.55;11.27;;;3.80;83.20;;;;;;4985010;28;20090;-75
2023/03/01 10:15:04;;;;;;;21.70;12.38;;;3.80;83.40;;;;;;5000106;28;20023;-75
2023/03/01 10:17:41;;;;;;;23.58;13.85;;;3.80;82.90;;;;;;4986310;28;20018;-74
2023/03/01 10:20:26;;;;;;;24.33;15.00;;;3.60;81.60;;;;;;5000910;28;20026;-78
2023/03/01 10:22:54;;;;;;;21.40;14.05;;;3.50;81.10;;;;;;4996744;28;20077;-75
2023/03/01 10:25:41;;;;;;;26.23;15.25;;;3.30;82.50;;;;;;5000898;28;20026;-74
2023/03/01 10:28:16;;;;;;;26.33;13.18;;;3.10;83.40;;;;;;5015837;28;20056;-75
2023/03/01 10:30:43;;;;;;;17.95;10.57;;;3.20;83.80;;;;;;5016519;28;20017;-73
2023/03/01 10:33:26;;;;;;;16.23;10.32;;;3.20;84.50;;;;;;4994991;28;20023;-75
2023/03/01 10:35:51;;;;;;;14.95;9.45;;;3.40;83.90;;;;;;4986296;28;20030;-76
2023/03/01 10:38:20;;;;;;;20.50;12.15;;;3.60;83.80;;;;;;4999317;28;20061;-75
2023/03/01 10:41:01;;;;;;;21.17;12.60;;;3.70;82.60;;;;;;4995872;28;20042;-77
2023/03/01 10:43:42;;;;;;;17.88;10.82;;;3.70;82.50;;;;;;4980978;28;20077;-75
2023/03/01 10:46:33;;;;;;;22.20;13.50;;;3.80;82.30;;;;;;4979709;28;20129;-74
2023/03/01 10:49:25;;;;;;;24.70;14.55;;;3.60;81.50;;;;;;5005448;28;20030;-75
2023/03/01 10:51:53;;;;;;;23.23;13.82;;;3.30;81.00;;;;;;5001599;28;20105;-74
2023/03/01 10:54:29;;;;;;;23.35;14.40;;;3.20;81.70;;;;;;5002130;28;20056;-75
2023/03/01 10:56:58;;;;;;;27.35;14.43;;;3.10;82.40;;;;;;4998731;28;20037;-76
2023/03/01 10:59:34;;;;;;;28.02;14.75;;;3.20;82.60;;;;;;4991216;28;20102;-76
2023/03/01 11:02:33;;;;;;;17.38;10.93;;;3.50;83.90;;;;;;4994535;28;20045;-76
2023/03/01 11:05:13;;;;;;;16.67;10.70;;;3.90;83.00;;;;;;5002468;28;20120;-74
2023/03/01 11:07:57;;;;;;;20.15;12.00;;;4.20;81.70;;;;;;4980599;28;20038;-73
2023/03/01 11:10:34;;;;;;;21.45;12.25;;;4.40;80.60;;;;;;4981124;28;20510;-75
2023/03/01 11:13:21;;;;;;;26.52;15.18;;;4.40;79.40;;;;;;4981551;28;20085;-76
2023/03/01 11:16:09;;;;;;;26.55;15.55;;;4.60;79.00;;;;;;4988362;28;20037;-76
2023/03/01 11:18:35;;;;;;;29.05;14.73;;;4.80;78.30;;;;;;5007257;28;20022;-73
2023/03/01 11:21:02;;;;;;;21.02;14.05;;;4.90;78.10;;;;;;5003528;28;20145;-77
2023/03/01 11:23:30;;;;;;;24.60;15.50;;;5.10;77.10;;;;;;4980463;28;20486;-75
2023/03/01 11:26:00;;;;;;;23.63;13.32;;;5.10;75.50;;;;;;4995822;28;20023;-75
2023/03/01 11:28:28;;;;;;;27.17;15.48;;;5.00;76.50;;;;;;4998531;28;20022;-74
2023/03/01 11:31:00;;;;;;;23.40;14.85;;;4.90;76.50;;;;;;4998688;28;20022;-75
2023/03/01 11:33:44;;;;;;;25.50;15.43;;;4.90;77.00;;;;;;4994262;28;20030;-76
2023/03/01 11:36:32;;;;;;;22.48;15.40;;;5.00;76.50;;;;;;4986050;28;20033;-75
2023/03/01 11:39:16;;;;;;;29.83;17.08;;;4.70;75.70;;;;;;4991168;28;20096;-76
2023/03/01 11:41:52;;;;;;;22.33;14.45;;;4.60;77.40;;;;;;4990060;28;20057;-76
2023/03/01 11:44:25;;;;;;;24.73;16.02;;;4.70;78.40;;;;;;4992594;28;20030;-76
2023/03/01 11:47:15;;;;;;;24.88;15.23;;;4.90;77.20;;;;;;4997393;28;20031;-76
2023/03/01 11:49:46;;;;;;;28.58;16.40;;;5.00;77.80;;;;;;5019918;28;20050;-75
2023/03/01 11:52:29;;;;;;;26.77;17.55;;;5.20;76.50;;;;;;4998468;28;20018;-76
2023/03/01 11:55:20;;;;;;;23.58;15.48;;;5.20;75.00;;;;;;5003793;28;20026;-75
2023/03/01 11:57:59;;;;;;;22.95;14.75;;;5.10;76.20;;;;;;5007635;28;20022;-76
2023/03/01 12:00:44;;;;;;;22.55;13.68;;;5.00;76.30;;;;;;4998585;28;20026;-75
2023/03/01 12:03:31;;;;;;;23.63;13.75;;;5.00;77.10;;;;;;4995893;28;20027;-75
2023/03/01 12:06:40;;;;;;;19.45;11.18;;;5.10;77.50;;;;;;4996907;28;20022;-75
2023/03/01 12:09:38;;;;;;;20.63;12.73;;;5.50;77.20;;;;;;4994684;28;20022;-75
2023/03/01 12:12:22;;;;;;;17.35;10.07;;;5.80;75.90;;;;;;4977610;28;20033;-76
2023/03/01 12:15:15;;;;;;;23.23;14.27;;;5.90;75.10;;;;;;4977814;28;20050;-75
2023/03/01 12:17:47;;;;;;;;;;;5.90;74.30;;;;;;4986428;28;20130;-76
2023/03/01 12:20:35;;;;;;;14.63;9.68;;;6.00;74.80;;;;;;5010161;28;19949;-75
2023/03/01 12:23:04;;;;;;;23.60;14.52;;;6.20;74.40;;;;;;4998635;28;20034;-75
2023/03/01 12:25:58;;;;;;;23.55;14.27;;;6.20;73.00;;;;;;4998168;28;20484;-74
2023/03/01 12:29:01;;;;;;;21.40;13.95;;;6.30;73.20;;;;;;4998110;28;20141;-76
2023/03/01 12:32:04;;;;;;;23.10;13.13;;;6.50;73.50;;;;;;5011676;28;20022;-76
2023/03/01 12:34:30;;;;;;;23.88;15.52;;;6.70;73.60;;;;;;4997176;28;20030;-75
2023/03/01 12:37:23;;;;;;;22.48;14.65;;;6.80;71.90;;;;;;4997423;28;20077;-76
2023/03/01 12:40:30;;;;;;;27.42;15.35;;;6.80;71.70;;;;;;4999427;28;20027;-74
2023/03/01 12:43:04;;;;;;;23.63;15.05;;;6.60;71.30;;;;;;4998275;28;20029;-75
2023/03/01 12:46:12;;;;;;;25.95;16.10;;;6.30;71.90;;;;;;4998605;28;20026;-75
2023/03/01 12:48:44;;;;;;;28.23;17.55;;;6.20;73.00;;;;;;4986379;28;20088;-74
2023/03/01 12:51:14;;;;;;;24.67;16.05;;;6.20;72.60;;;;;;4989021;28;20070;-76
2023/03/01 12:53:43;;;;;;;22.00;14.27;;;6.10;73.10;;;;;;4996585;28;20558;-75
2023/03/01 12:56:16;;;;;;;27.77;17.48;;;6.10;73.90;;;;;;4997961;28;20030;-76
2023/03/01 12:59:17;;;;;;;26.90;16.75;;;6.30;73.20;;;;;;4995888;28;20030;-76
2023/03/01 13:02:16;;;;;;;34.00;17.25;;;6.40;73.40;;;;;;4995835;28;20049;-75